createdAt,value
2018-12-10T00:01:29.005Z,1.47
2018-12-10T00:04:04.281Z,1.43
2018-12-10T00:06:38.738Z,1.00
2018-12-10T00:09:13.081Z,0.77
2018-12-10T00:11:48.439Z,1.30
2018-12-10T00:14:23.836Z,0.80
2018-12-10T00:16:59.029Z,1.20
2018-12-10T00:19:34.518Z,1.30
2018-12-10T00:22:09.838Z,1.07
2018-12-10T00:24:44.833Z,1.00
2018-12-10T00:27:19.312Z,1.57
2018-12-10T00:29:54.430Z,1.50
2018-12-10T00:32:28.991Z,1.43
2018-12-10T00:35:03.589Z,1.53
2018-12-10T00:37:39.405Z,1.60
2018-12-10T00:40:15.425Z,2.20
2018-12-10T00:42:51.005Z,1.90
2018-12-10T00:45:26.504Z,1.60
2018-12-10T00:48:02.250Z,3.03
2018-12-10T00:50:37.507Z,1.70
2018-12-10T00:53:14.669Z,1.93
2018-12-10T00:55:50.391Z,2.43
2018-12-10T00:58:27.332Z,1.80
2018-12-10T01:01:02.652Z,1.60
2018-12-10T01:03:38.743Z,2.37
2018-12-10T01:06:14.180Z,2.17
2018-12-10T01:08:48.651Z,2.00
2018-12-10T01:11:23.601Z,2.00
2018-12-10T01:13:58.129Z,1.90
2018-12-10T01:16:33.356Z,3.10
2018-12-10T01:19:08.314Z,2.60
2018-12-10T01:21:43.206Z,2.00
2018-12-10T01:24:18.690Z,1.73
2018-12-10T01:26:53.948Z,2.03
2018-12-10T01:29:36.266Z,2.00
2018-12-10T01:32:11.269Z,1.97
2018-12-10T01:34:45.760Z,2.47
2018-12-10T01:37:20.735Z,2.27
2018-12-10T01:39:55.755Z,1.70
2018-12-10T01:42:30.276Z,1.80
2018-12-10T01:45:05.717Z,1.93
2018-12-10T01:47:40.270Z,1.60
2018-12-10T01:50:15.361Z,1.93
2018-12-10T01:52:49.861Z,1.60
2018-12-10T01:55:25.233Z,1.33
2018-12-10T01:57:59.652Z,1.60
2018-12-10T02:00:42.381Z,2.00
2018-12-10T02:03:17.702Z,1.33
2018-12-10T02:05:52.177Z,2.03
2018-12-10T02:08:26.933Z,1.57
2018-12-10T02:11:10.670Z,1.70
2018-12-10T02:13:45.007Z,1.93
2018-12-10T02:16:20.509Z,2.20
2018-12-10T02:18:55.909Z,2.23
2018-12-10T02:21:30.665Z,4.13
2018-12-10T02:24:05.894Z,1.90
2018-12-10T02:26:40.432Z,2.23
2018-12-10T02:29:15.778Z,2.73
2018-12-10T02:31:50.513Z,2.20
2018-12-10T02:34:25.723Z,2.70
2018-12-10T02:37:00.881Z,1.67
2018-12-10T02:42:17.380Z,1.53
2018-12-10T02:44:51.691Z,2.17
2018-12-10T02:47:26.095Z,1.93
2018-12-10T02:50:01.277Z,1.87
2018-12-10T02:52:36.257Z,2.00
2018-12-10T02:55:11.462Z,1.50
2018-12-10T02:57:46.123Z,2.10
2018-12-10T03:00:24.297Z,2.23
2018-12-10T03:02:59.355Z,2.17
2018-12-10T03:05:33.702Z,2.10
2018-12-10T03:08:08.207Z,2.20
2018-12-10T03:10:42.681Z,1.87
2018-12-10T03:13:17.917Z,1.73
2018-12-10T03:15:52.966Z,1.77
2018-12-10T03:18:28.313Z,2.30
2018-12-10T03:21:03.438Z,2.37
2018-12-10T03:23:37.938Z,1.90
2018-12-10T03:26:12.476Z,1.80
2018-12-10T03:28:47.604Z,1.20
2018-12-10T03:31:23.071Z,1.17
2018-12-10T03:33:58.502Z,2.03
2018-12-10T03:36:33.917Z,1.77
2018-12-10T03:39:09.181Z,1.40
2018-12-10T03:41:44.222Z,2.10
2018-12-10T03:44:18.773Z,1.97
2018-12-10T03:46:53.211Z,1.53
2018-12-10T03:49:27.822Z,1.10
2018-12-10T03:52:02.870Z,1.30
2018-12-10T03:54:37.161Z,1.10
2018-12-10T03:57:12.406Z,1.60
2018-12-10T03:59:46.826Z,1.43
2018-12-10T04:02:21.737Z,1.17
2018-12-10T04:04:56.242Z,1.90
2018-12-10T04:07:30.908Z,2.33
2018-12-10T04:10:06.101Z,1.60
2018-12-10T04:12:41.202Z,1.33
2018-12-10T04:15:16.811Z,1.17
2018-12-10T04:17:51.246Z,1.67
2018-12-10T04:20:26.300Z,1.40
2018-12-10T04:23:00.656Z,1.17
2018-12-10T04:25:35.226Z,1.07
2018-12-10T04:28:09.776Z,1.13
2018-12-10T04:30:44.583Z,1.07
2018-12-10T04:33:22.290Z,1.13
2018-12-10T04:35:56.661Z,1.43
2018-12-10T04:38:31.646Z,1.20
2018-12-10T04:41:06.702Z,1.00
2018-12-10T04:43:41.349Z,0.77
2018-12-10T04:46:15.689Z,1.10
2018-12-10T04:48:50.035Z,0.87
2018-12-10T04:51:25.059Z,1.00
2018-12-10T04:53:59.707Z,1.33
2018-12-10T04:56:41.902Z,0.87
2018-12-10T04:59:17.259Z,1.40
2018-12-10T05:01:52.609Z,1.73
2018-12-10T05:04:27.046Z,1.00
2018-12-10T05:07:01.463Z,1.30
2018-12-10T05:09:35.821Z,0.97
2018-12-10T05:12:10.233Z,1.43
2018-12-10T05:14:44.475Z,1.40
2018-12-10T05:17:19.516Z,1.30
2018-12-10T05:19:58.241Z,2.47
2018-12-10T05:22:32.857Z,1.10
2018-12-10T05:25:07.272Z,1.60
2018-12-10T05:27:41.581Z,1.43
2018-12-10T05:30:16.475Z,1.20
2018-12-10T05:32:51.351Z,1.03
2018-12-10T05:35:26.348Z,1.20
2018-12-10T05:38:01.390Z,1.50
2018-12-10T05:40:36.738Z,1.47
2018-12-10T05:43:11.122Z,1.63
2018-12-10T05:45:45.536Z,1.80
2018-12-10T05:48:20.121Z,1.40
2018-12-10T05:50:55.261Z,1.30
2018-12-10T05:53:30.579Z,2.33
2018-12-10T05:56:05.694Z,1.40
2018-12-10T05:58:40.824Z,1.67
2018-12-10T06:01:16.153Z,2.70
2018-12-10T06:10:46.875Z,2.10
2018-12-10T06:13:24.779Z,1.70
2018-12-10T06:16:00.390Z,1.83
2018-12-10T06:18:35.801Z,2.40
2018-12-10T06:21:10.777Z,2.53
2018-12-10T06:23:45.325Z,2.50
2018-12-10T06:26:20.471Z,1.67
2018-12-10T06:28:55.453Z,2.00
2018-12-10T06:31:29.945Z,2.60
2018-12-10T06:34:05.809Z,1.90
2018-12-10T06:36:40.975Z,1.63
2018-12-10T06:39:16.145Z,2.53
2018-12-10T06:41:51.179Z,1.90
2018-12-10T06:44:25.735Z,2.27
2018-12-10T06:47:00.319Z,1.93
2018-12-10T06:49:35.773Z,1.70
2018-12-10T06:52:10.786Z,2.47
2018-12-10T06:54:45.938Z,1.60
2018-12-10T06:57:21.354Z,1.90
2018-12-10T06:59:56.737Z,1.93
2018-12-10T07:02:40.026Z,1.80
2018-12-10T07:05:15.102Z,2.00
2018-12-10T07:07:49.395Z,1.60
2018-12-10T07:10:23.901Z,1.90
2018-12-10T07:12:59.260Z,2.10
2018-12-10T07:15:34.398Z,2.23
2018-12-10T07:18:16.953Z,2.40
2018-12-10T07:21:00.195Z,1.90
2018-12-10T07:23:34.773Z,2.30
2018-12-10T07:26:09.297Z,2.20
2018-12-10T07:28:44.287Z,2.10
2018-12-10T07:31:18.850Z,1.83
2018-12-10T07:33:54.158Z,2.00
2018-12-10T07:36:29.617Z,2.07
2018-12-10T07:39:06.785Z,1.60
2018-12-10T07:41:42.365Z,2.67
2018-12-10T07:44:16.984Z,2.47
2018-12-10T07:46:52.193Z,1.87
2018-12-10T07:49:26.741Z,2.00
2018-12-10T07:52:01.575Z,2.00
2018-12-10T07:54:37.045Z,1.93
2018-12-10T07:57:11.961Z,2.20
2018-12-10T07:59:47.106Z,1.73
2018-12-10T08:02:22.315Z,1.57
2018-12-10T08:04:57.208Z,1.93
2018-12-10T08:07:32.517Z,1.73
2018-12-10T08:10:07.858Z,2.67
2018-12-10T08:12:42.331Z,2.10
2018-12-10T08:15:17.436Z,1.80
2018-12-10T08:17:53.012Z,3.30
2018-12-10T08:20:27.767Z,2.70
2018-12-10T08:23:02.256Z,2.40
2018-12-10T08:25:36.713Z,3.07
2018-12-10T08:28:11.184Z,1.63
2018-12-10T08:30:46.460Z,2.23
2018-12-10T08:33:23.690Z,2.43
2018-12-10T08:35:58.074Z,1.90
2018-12-10T08:38:32.974Z,1.80
2018-12-10T08:41:07.470Z,1.80
2018-12-10T08:43:42.505Z,2.27
2018-12-10T08:46:17.034Z,1.83
2018-12-10T08:48:52.110Z,3.10
2018-12-10T08:51:27.378Z,1.87
2018-12-10T08:54:02.314Z,2.10
2018-12-10T08:56:43.741Z,1.60
2018-12-10T08:59:18.464Z,1.63
2018-12-10T09:01:53.310Z,1.67
2018-12-10T09:04:28.388Z,1.60
2018-12-10T09:07:03.667Z,1.50
2018-12-10T09:09:38.760Z,2.00
2018-12-10T09:12:13.941Z,1.70
2018-12-10T09:14:48.341Z,2.00
2018-12-10T09:17:24.010Z,3.20
2018-12-10T09:19:59.315Z,2.27
2018-12-10T09:22:33.842Z,4.00
2018-12-10T09:25:08.501Z,1.30
2018-12-10T09:27:43.529Z,2.00
2018-12-10T09:30:18.683Z,2.07
2018-12-10T09:32:53.016Z,1.40
2018-12-10T09:35:28.237Z,1.20
2018-12-10T09:38:03.279Z,2.13
2018-12-10T09:40:37.803Z,1.97
2018-12-10T09:43:12.313Z,2.80
2018-12-10T09:45:47.337Z,1.97
2018-12-10T09:48:21.737Z,2.03
2018-12-10T09:50:57.233Z,1.07
2018-12-10T09:53:32.465Z,1.60
2018-12-10T09:56:07.519Z,1.83
2018-12-10T09:58:42.374Z,2.07
2018-12-10T10:01:17.481Z,1.40
2018-12-10T10:03:52.995Z,1.73
2018-12-10T10:06:28.544Z,1.23
2018-12-10T10:09:03.762Z,1.63
2018-12-10T10:11:38.430Z,1.67
2018-12-10T10:14:12.800Z,1.90
2018-12-10T10:16:47.949Z,1.27
2018-12-10T10:19:23.086Z,1.10
2018-12-10T10:21:58.326Z,1.50
2018-12-10T10:26:03.181Z,1.43
2018-12-10T10:28:38.388Z,1.00
2018-12-10T10:31:12.838Z,0.90
2018-12-10T10:33:48.116Z,1.43
2018-12-10T10:36:23.225Z,1.67
2018-12-10T10:38:58.283Z,1.00
2018-12-10T10:41:32.797Z,1.93
2018-12-10T10:44:07.367Z,1.30
2018-12-10T10:46:42.605Z,1.60
2018-12-10T10:49:17.042Z,1.07
2018-12-10T10:51:52.285Z,1.40
2018-12-10T10:54:27.491Z,1.53
2018-12-10T10:57:02.562Z,1.40
2018-12-10T10:59:40.561Z,1.70
2018-12-10T11:02:20.169Z,1.70
2018-12-10T11:04:54.746Z,2.00
2018-12-10T11:07:29.127Z,2.00
2018-12-10T11:10:03.963Z,1.97
2018-12-10T11:12:38.329Z,1.97
2018-12-10T11:15:17.310Z,2.20
2018-12-10T11:17:52.394Z,1.93
2018-12-10T11:20:27.778Z,1.80
2018-12-10T11:23:02.223Z,1.30
2018-12-10T11:25:37.453Z,1.73
2018-12-10T11:28:12.158Z,2.07
2018-12-10T11:30:47.461Z,2.00
2018-12-10T11:33:25.014Z,1.80
2018-12-10T11:35:59.568Z,2.87
2018-12-10T11:38:34.885Z,2.83
2018-12-10T11:41:09.380Z,2.60
2018-12-10T11:43:44.041Z,2.07
2018-12-10T11:46:19.213Z,1.77
2018-12-10T11:48:53.522Z,2.10
2018-12-10T11:51:28.980Z,2.37
2018-12-10T11:54:04.839Z,1.60
2018-12-10T11:56:44.581Z,1.87
2018-12-10T11:59:19.722Z,2.00
2018-12-10T12:01:55.044Z,1.80
2018-12-10T12:04:29.599Z,1.43
2018-12-10T12:07:08.742Z,1.50
2018-12-10T12:09:43.222Z,1.57
2018-12-10T12:12:18.277Z,1.80
2018-12-10T12:14:52.708Z,1.67
2018-12-10T12:17:28.038Z,1.50
2018-12-10T12:20:03.890Z,2.03
2018-12-10T12:22:38.463Z,1.80
2018-12-10T12:25:13.018Z,2.83
2018-12-10T12:27:47.445Z,1.87
2018-12-10T12:30:22.763Z,1.17
2018-12-10T12:32:57.275Z,1.40
2018-12-10T12:35:32.600Z,1.17
2018-12-10T12:38:07.733Z,1.13
2018-12-10T12:40:42.127Z,1.10
2018-12-10T12:43:17.460Z,1.80
2018-12-10T12:45:52.879Z,1.40
2018-12-10T12:48:27.512Z,1.70
2018-12-10T12:51:02.725Z,1.47
2018-12-10T12:53:37.585Z,1.30
2018-12-10T12:56:13.054Z,1.30
2018-12-10T12:58:48.441Z,1.53
2018-12-10T13:01:23.746Z,1.20
2018-12-10T13:03:57.998Z,1.67
2018-12-10T13:06:32.455Z,2.60
2018-12-10T13:09:07.446Z,1.60
2018-12-10T13:11:41.983Z,1.67
2018-12-10T13:14:17.557Z,1.83
2018-12-10T13:16:52.799Z,1.80
2018-12-10T13:19:29.658Z,1.30
2018-12-10T13:22:04.730Z,2.03
2018-12-10T13:24:39.757Z,1.50
2018-12-10T13:27:14.318Z,1.40
2018-12-10T13:29:49.286Z,2.03
2018-12-10T13:32:23.853Z,1.47
2018-12-10T13:34:58.866Z,1.40
2018-12-10T13:37:38.313Z,2.37
2018-12-10T13:40:12.951Z,1.87
2018-12-10T13:42:47.491Z,1.70
2018-12-10T13:45:21.890Z,2.40
2018-12-10T13:47:56.246Z,1.57
2018-12-10T13:50:31.426Z,2.43
2018-12-10T13:53:06.473Z,1.63
2018-12-10T13:55:41.823Z,1.30
2018-12-10T13:58:16.788Z,1.70
2018-12-10T14:00:52.208Z,1.40
2018-12-10T14:03:26.728Z,2.10
2018-12-10T14:06:01.545Z,1.50
2018-12-10T14:08:35.762Z,2.40
2018-12-10T14:11:10.864Z,1.90
2018-12-10T14:13:45.940Z,1.73
2018-12-10T14:16:21.158Z,2.00
2018-12-10T14:18:56.440Z,2.00
2018-12-10T14:21:31.955Z,2.30
2018-12-10T14:24:07.032Z,2.07
2018-12-10T14:26:41.735Z,2.20
2018-12-10T14:29:16.961Z,2.40
2018-12-10T14:31:51.270Z,1.87
2018-12-10T14:34:26.989Z,2.40
2018-12-10T14:37:01.961Z,2.40
2018-12-10T14:39:37.101Z,2.20
2018-12-10T14:42:23.901Z,2.23
2018-12-10T14:44:59.424Z,2.03
2018-12-10T14:47:33.997Z,2.30
2018-12-10T14:50:08.387Z,2.30
2018-12-10T14:52:43.567Z,2.60
2018-12-10T14:55:18.692Z,2.20
2018-12-10T14:57:53.502Z,2.30
2018-12-10T15:00:30.142Z,2.27
2018-12-10T15:03:05.485Z,2.60
2018-12-10T15:05:40.765Z,2.50
2018-12-10T15:08:15.119Z,2.27
2018-12-10T15:10:50.737Z,2.47
2018-12-10T15:13:25.281Z,2.40
2018-12-10T15:16:00.597Z,2.50
2018-12-10T15:18:35.973Z,2.60
2018-12-10T15:21:11.149Z,3.03
2018-12-10T15:23:46.727Z,3.00
2018-12-10T15:26:21.329Z,2.80
2018-12-10T15:28:57.642Z,2.97
2018-12-10T15:31:33.276Z,3.23
2018-12-10T15:34:08.721Z,3.00
2018-12-10T15:36:44.218Z,2.90
2018-12-10T15:39:19.661Z,3.77
2018-12-10T15:41:54.061Z,3.10
2018-12-10T15:44:30.091Z,2.90
2018-12-10T15:47:04.636Z,2.87
2018-12-10T15:49:38.896Z,3.10
2018-12-10T15:52:14.376Z,2.77
2018-12-10T15:54:50.629Z,2.43
2018-12-10T15:57:28.197Z,2.20
2018-12-10T16:00:04.414Z,2.80
2018-12-10T16:02:40.686Z,2.30
2018-12-10T16:05:16.310Z,2.20
2018-12-10T16:07:50.958Z,2.23
2018-12-10T16:10:25.585Z,2.37
2018-12-10T16:13:00.257Z,2.43
2018-12-10T16:15:36.534Z,2.50
2018-12-10T16:18:21.444Z,2.27
2018-12-10T16:20:57.886Z,2.27
2018-12-10T16:23:39.534Z,2.63
2018-12-10T16:26:13.833Z,2.53
2018-12-10T16:28:50.082Z,2.87
2018-12-10T16:31:25.214Z,2.70
2018-12-10T16:34:00.749Z,3.30
2018-12-10T16:36:37.445Z,3.03
2018-12-10T16:39:14.366Z,2.67
2018-12-10T16:41:48.802Z,3.53
2018-12-10T16:44:24.073Z,2.33
2018-12-10T16:46:58.740Z,2.50
2018-12-10T16:49:34.433Z,2.23
2018-12-10T16:52:10.102Z,2.97
2018-12-10T16:54:45.825Z,2.70
2018-12-10T16:57:22.226Z,2.93
2018-12-10T16:59:58.788Z,2.60
2018-12-10T17:02:34.518Z,3.40
2018-12-10T17:05:08.972Z,3.37
2018-12-10T17:07:45.494Z,3.20
2018-12-10T17:10:20.173Z,3.03
2018-12-10T17:12:55.108Z,3.37
2018-12-10T17:15:31.681Z,2.93
2018-12-10T17:18:06.394Z,4.10
2018-12-10T17:20:42.967Z,4.13
2018-12-10T17:23:19.744Z,3.63
2018-12-10T17:25:54.334Z,6.50
2018-12-10T17:28:35.762Z,3.70
2018-12-10T17:31:10.162Z,2.70
2018-12-10T17:33:47.178Z,2.10
2018-12-10T17:36:25.763Z,1.70
2018-12-10T17:39:03.074Z,2.13
2018-12-10T17:41:39.410Z,1.90
2018-12-10T17:44:13.916Z,1.90
2018-12-10T17:46:48.789Z,1.50
2018-12-10T17:49:23.476Z,1.43
2018-12-10T17:52:00.187Z,1.67
2018-12-10T17:54:34.782Z,1.93
2018-12-10T17:57:11.385Z,2.90
2018-12-10T17:59:45.910Z,2.47
2018-12-10T18:02:22.141Z,2.90
2018-12-10T18:04:56.716Z,3.33
2018-12-10T18:07:33.174Z,3.00
2018-12-10T18:10:07.970Z,3.47
2018-12-10T18:12:42.361Z,3.17
2018-12-10T18:15:25.437Z,3.23
2018-12-10T18:18:00.031Z,3.47
2018-12-10T18:20:36.836Z,3.77
2018-12-10T18:23:11.359Z,3.50
2018-12-10T18:25:45.698Z,3.70
2018-12-10T18:28:20.391Z,3.50
2018-12-10T18:30:56.782Z,4.13
2018-12-10T18:33:34.602Z,3.80
2018-12-10T18:36:09.273Z,4.30
2018-12-10T18:38:45.279Z,3.03
2018-12-10T18:41:27.089Z,3.63
2018-12-10T18:44:01.650Z,4.10
2018-12-10T18:46:36.380Z,3.70
2018-12-10T18:49:10.941Z,3.13
2018-12-10T18:51:47.620Z,3.73
2018-12-10T18:54:24.891Z,3.73
2018-12-10T18:57:09.404Z,4.13
2018-12-10T18:59:43.925Z,4.97
2018-12-10T19:02:20.702Z,3.60
2018-12-10T19:04:56.887Z,4.50
2018-12-10T19:07:33.869Z,3.83
2018-12-10T19:10:09.256Z,4.10
2018-12-10T19:12:44.965Z,3.63
2018-12-10T19:15:26.967Z,5.30
2018-12-10T19:18:01.613Z,4.63
2018-12-10T19:20:38.470Z,4.87
2018-12-10T19:23:14.878Z,5.33
2018-12-10T19:25:49.565Z,5.03
2018-12-10T19:28:32.960Z,6.20
2018-12-10T19:31:08.593Z,4.83
2018-12-10T19:33:45.738Z,5.10
2018-12-10T19:36:23.498Z,5.13
2018-12-10T19:39:00.913Z,5.67
2018-12-10T19:41:35.445Z,5.67
2018-12-10T19:44:09.729Z,5.00
2018-12-10T19:46:44.370Z,5.00
2018-12-10T19:49:20.663Z,7.20
2018-12-10T19:51:57.334Z,4.87
2018-12-10T19:54:33.329Z,6.40
2018-12-10T19:57:09.869Z,5.67
2018-12-10T19:59:44.382Z,6.23
2018-12-10T20:02:20.858Z,6.70
2018-12-10T20:04:55.479Z,6.40
2018-12-10T20:07:30.473Z,6.30
2018-12-10T20:10:06.626Z,6.23
2018-12-10T20:12:41.460Z,5.13
2018-12-10T20:15:27.191Z,7.03
2018-12-10T20:18:01.820Z,5.73
2018-12-10T20:20:37.857Z,5.37
2018-12-10T20:23:12.504Z,5.30
2018-12-10T20:25:48.974Z,6.90
2018-12-10T20:31:05.679Z,5.73
2018-12-10T20:33:49.926Z,5.30
2018-12-10T20:36:26.572Z,4.17
2018-12-10T20:39:04.632Z,5.47
2018-12-10T20:41:41.149Z,5.40
2018-12-10T20:44:15.625Z,5.80
2018-12-10T20:46:50.097Z,5.07
2018-12-10T20:49:26.624Z,5.30
2018-12-10T20:52:03.651Z,4.33
2018-12-10T20:54:38.257Z,4.83
2018-12-10T20:57:15.773Z,4.50
2018-12-10T21:06:47.227Z,5.20
2018-12-10T21:09:21.659Z,4.60
2018-12-10T21:11:56.303Z,4.90
2018-12-10T21:14:31.973Z,4.93
2018-12-10T21:17:07.413Z,4.90
2018-12-10T21:22:29.321Z,4.17
2018-12-10T21:25:04.257Z,4.70
2018-12-10T21:27:39.025Z,4.27
2018-12-10T21:30:14.982Z,4.67
2018-12-10T21:32:50.757Z,3.93
2018-12-10T21:35:26.598Z,4.00
2018-12-10T21:38:02.181Z,4.47
2018-12-10T21:40:36.966Z,4.57
2018-12-10T21:43:11.489Z,4.10
2018-12-10T21:45:45.804Z,3.33
2018-12-10T21:48:21.349Z,3.30
2018-12-10T21:50:58.864Z,4.47
2018-12-10T21:53:34.006Z,3.13
2018-12-10T21:56:08.359Z,3.60
2018-12-10T21:58:43.345Z,4.43
2018-12-10T22:01:18.418Z,4.17
2018-12-10T22:03:53.750Z,3.80
2018-12-10T22:06:28.262Z,2.63
2018-12-10T22:09:02.691Z,3.63
2018-12-10T22:11:37.169Z,3.40
2018-12-10T22:14:12.238Z,2.90
2018-12-10T22:16:47.470Z,3.20
2018-12-10T22:19:22.634Z,2.60
2018-12-10T22:21:57.782Z,1.73
2018-12-10T22:24:32.227Z,2.17
2018-12-10T22:27:06.561Z,2.10
2018-12-10T22:29:41.677Z,2.37
2018-12-10T22:32:16.045Z,2.47
2018-12-10T22:34:50.855Z,2.87
2018-12-10T22:37:26.073Z,2.03
2018-12-10T22:40:01.441Z,1.80
2018-12-10T22:42:36.815Z,1.93
2018-12-10T22:45:11.274Z,2.63
2018-12-10T22:47:45.793Z,2.10
2018-12-10T22:50:20.109Z,2.23
2018-12-10T22:52:55.310Z,1.70
2018-12-10T22:55:30.475Z,2.10
2018-12-10T22:58:05.936Z,2.23
2018-12-10T23:00:47.210Z,2.40
2018-12-10T23:03:30.820Z,2.60
2018-12-10T23:06:05.190Z,3.40
2018-12-10T23:08:40.416Z,3.73
2018-12-10T23:11:14.668Z,3.40
2018-12-10T23:13:49.984Z,3.60
2018-12-10T23:16:25.113Z,2.90
2018-12-10T23:19:00.209Z,3.33
2018-12-10T23:21:35.367Z,3.80
2018-12-10T23:24:10.476Z,3.40
2018-12-10T23:26:44.833Z,2.80
2018-12-10T23:29:19.976Z,3.30
2018-12-10T23:31:55.201Z,3.53
2018-12-10T23:34:30.351Z,4.13
2018-12-10T23:37:05.363Z,3.77
2018-12-10T23:39:40.645Z,3.30
2018-12-10T23:42:14.997Z,3.80
2018-12-10T23:44:55.871Z,3.70
2018-12-10T23:47:30.946Z,4.70
2018-12-10T23:50:05.556Z,3.27
2018-12-10T23:52:41.053Z,4.00
2018-12-10T23:55:15.622Z,4.27
2018-12-10T23:57:50.888Z,3.50
